Weather reports worldwide

Advertisment
S. Pablo De Montes, Spain (8270): temperature & dewpoint: 10.09.2019 05:00:00 - 16.09.2019 05:00:00 (CEST)S. Pablo De Montes, Spain (8270): wind speed & gusts: 10.09.2019 05:00:00 - 16.09.2019 05:00:00 (CEST)S. Pablo De Montes, Spain (8270): wind direction: 10.09.2019 05:00:00 - 16.09.2019 05:00:00 (CEST)S. Pablo De Montes, Spain (8270): precipitation: 10.09.2019 05:00:00 - 16.09.2019 05:00:00 (CEST)
Date & Time tt [°C] td [°C] ff [km/h] ff [kn] fx [km/h] fx [kn] dd rr [mm]
16.09.2019 05:00:00 - - - - - - - -
16.09.2019 04:00:00 - - - - - - - -
16.09.2019 03:00:00 - - - - - - - -
16.09.2019 02:00:00 - - - - - - - -
16.09.2019 01:00:00 - - - - - - - -
16.09.2019 00:00:00 - - - - - - - -
15.09.2019 23:00:00 - - - - - - - -
15.09.2019 22:00:00 - - - - - - - -
15.09.2019 21:00:00 - - - - - - - -
15.09.2019 20:00:00 - - - - - - - -
15.09.2019 19:00:00 - - - - - - - -
15.09.2019 18:00:00 - - - - - - - -
15.09.2019 17:00:00 - - - - - - - -
15.09.2019 16:00:00 - - - - - - - -
15.09.2019 15:00:00 - - - - - - - -
15.09.2019 14:00:00 - - - - - - - -
15.09.2019 13:00:00 - - - - - - - -
15.09.2019 12:00:00 - - - - - - - -
15.09.2019 11:00:00 - - - - - - - -
15.09.2019 10:00:00 - - - - - - - -
15.09.2019 09:00:00 - - - - - - - -
15.09.2019 08:00:00 - - - - - - - -
15.09.2019 07:00:00 - - - - - - - -
15.09.2019 06:00:00 - - - - - - - -
15.09.2019 05:00:00 - - - - - - - -
15.09.2019 04:00:00 - - - - - - - -
15.09.2019 03:00:00 - - - - - - - -
15.09.2019 02:00:00 - - - - - - - -
15.09.2019 01:00:00 14,3 12,3 3 2 8 4 W 0,0
15.09.2019 00:00:00 14,5 12,5 2 1 5 3 WNW 0,0
14.09.2019 23:00:00 14,4 12,4 1 1 6 3 NW 0,0
14.09.2019 22:00:00 14,7 12,6 4 2 9 5 N 0,0
14.09.2019 21:00:00 14,8 12,5 5 3 9 5 W 0,0
14.09.2019 20:00:00 15,1 12,2 1 1 14 8 NE -
14.09.2019 19:00:00 15,3 12,6 6 3 13 7 NE 1,6
14.09.2019 18:00:00 14,4 10,6 8 4 26 14 E 0,6
14.09.2019 17:00:00 17,2 9,6 9 5 22 12 ENE 0,0
14.09.2019 16:00:00 16,8 11,9 6 3 25 14 NNE 0,0
14.09.2019 15:00:00 15,7 11,5 8 5 17 9 ENE 0,0
14.09.2019 14:00:00 15,7 11,1 3 2 20 11 E -
14.09.2019 13:00:00 15,5 10,7 7 4 16 9 ENE 0,0
14.09.2019 12:00:00 15,5 10,9 5 3 12 6 NE 0,0
14.09.2019 11:00:00 14,5 10,1 7 4 17 9 ENE 0,0
14.09.2019 10:00:00 13,7 10,5 2 1 9 5 ENE 0,0
14.09.2019 09:00:00 13,4 10,4 3 2 9 5 NW 0,0
14.09.2019 08:00:00 13,8 10,4 2 1 15 8 NNE -
14.09.2019 07:00:00 13,4 10,9 1 1 13 7 NW 0,0
14.09.2019 06:00:00 13,1 10,5 3 2 34 18 SW 0,0
14.09.2019 05:00:00 14,2 9,8 11 6 20 11 E 0,0
14.09.2019 04:00:00 14,3 9,9 6 3 12 7 E 0,0
14.09.2019 03:00:00 15,1 9,9 5 3 14 8 NE 0,0
14.09.2019 02:00:00 14,7 12,4 0 0 7 4 N -
14.09.2019 01:00:00 15,1 12,6 4 2 16 8 SE 0,0
14.09.2019 00:00:00 15,6 12,5 8 5 38 21 E 0,0
13.09.2019 23:00:00 15,5 12,8 9 5 26 14 ENE 0,0
13.09.2019 22:00:00 14,3 11,8 2 1 15 8 ESE 0,0
13.09.2019 21:00:00 14,5 11,5 6 4 20 11 E 0,1
13.09.2019 20:00:00 15,1 12,4 5 3 28 15 NE -
13.09.2019 19:00:00 15,8 10,1 12 6 29 16 ENE 0,0
13.09.2019 18:00:00 15,9 9,8 10 5 32 18 N 0,1
13.09.2019 17:00:00 16,8 10,6 14 8 31 17 NE 0,0
13.09.2019 16:00:00 15,8 12,6 4 2 16 9 N 0,0
13.09.2019 15:00:00 14,4 11,7 5 3 19 10 ENE 0,9
13.09.2019 14:00:00 15,0 8,7 11 6 26 14 E -
13.09.2019 13:00:00 17,1 8,0 6 3 16 8 N 0,0
13.09.2019 12:00:00 15,7 7,7 1 1 6 4 NNE 0,0
13.09.2019 11:00:00 14,6 7,9 0 0 9 5 N 0,0
13.09.2019 10:00:00 13,5 7,1 3 2 7 4 WSW 0,0
13.09.2019 09:00:00 15,4 4,5 1 1 7 4 N 0,0
13.09.2019 08:00:00 14,6 3,7 5 3 8 5 SSE -
13.09.2019 07:00:00 15,7 3,8 6 3 28 15 NNE 0,0
13.09.2019 06:00:00 16,6 4,0 11 6 33 18 ESE 0,0
13.09.2019 05:00:00 16,3 4,1 7 4 21 12 ENE 0,0
13.09.2019 04:00:00 16,1 3,9 8 5 25 14 ENE 0,0
13.09.2019 03:00:00 16,5 4,2 10 5 37 20 ENE 0,0
13.09.2019 02:00:00 17,1 4,8 14 7 45 24 E -
13.09.2019 01:00:00 18,4 6,3 22 12 57 31 E 0,0
13.09.2019 00:00:00 19,1 8,2 15 8 42 23 ESE 0,0
12.09.2019 23:00:00 18,5 8,5 8 4 24 13 E 0,0
12.09.2019 22:00:00 18,7 8,7 5 3 19 10 E 0,0
12.09.2019 21:00:00 18,9 8,3 5 3 18 10 ESE 0,0
12.09.2019 20:00:00 20,2 8,9 9 5 32 18 E -
12.09.2019 19:00:00 20,9 8,9 10 5 29 16 E 0,0
12.09.2019 18:00:00 20,2 8,9 11 6 29 16 E 0,0
12.09.2019 17:00:00 20,0 7,7 12 7 40 21 E 0,0
12.09.2019 16:00:00 - - - - - - - -
12.09.2019 15:00:00 - - - - - - - -
12.09.2019 14:00:00 - - - - - - - -
12.09.2019 13:00:00 - - - - - - - -
12.09.2019 12:00:00 - - - - - - - -
12.09.2019 11:00:00 - - - - - - - -
12.09.2019 10:00:00 - - - - - - - -
12.09.2019 09:00:00 - - - - - - - -
12.09.2019 08:00:00 11,1 5,0 3 1 9 5 SW -
12.09.2019 07:00:00 11,3 5,4 3 1 9 5 NE 0,0
12.09.2019 06:00:00 11,4 5,9 3 1 10 5 SW 0,0
12.09.2019 05:00:00 11,3 7,0 4 2 9 5 WSW 0,0
12.09.2019 04:00:00 13,1 6,9 3 1 17 9 NE 0,0
12.09.2019 03:00:00 13,7 6,6 1 0 11 6 ENE 0,0
12.09.2019 02:00:00 14,0 7,3 4 2 19 10 SE -
12.09.2019 01:00:00 14,6 7,2 9 5 24 13 E 0,0
12.09.2019 00:00:00 15,0 6,3 6 3 29 15 ESE 0,0
11.09.2019 23:00:00 15,4 5,1 11 6 32 17 E 0,0
11.09.2019 22:00:00 18,0 3,5 10 5 38 20 E 0,0
11.09.2019 21:00:00 19,2 3,8 12 7 45 24 E 0,0
11.09.2019 20:00:00 20,0 4,1 16 9 36 19 ENE -
11.09.2019 19:00:00 20,7 4,3 16 8 35 19 NE 0,0
11.09.2019 18:00:00 21,8 5,3 13 7 40 22 ENE 0,0
11.09.2019 17:00:00 22,0 5,0 13 7 40 21 NNE 0,0
11.09.2019 16:00:00 24,0 5,9 18 10 42 23 NNE 0,0
11.09.2019 15:00:00 22,8 6,1 17 9 44 24 NNE 0,0
11.09.2019 14:00:00 22,0 6,3 16 8 39 21 NNE -
11.09.2019 13:00:00 20,3 5,9 18 10 37 20 NE 0,0
11.09.2019 12:00:00 18,0 5,6 15 8 35 19 N 0,0
11.09.2019 11:00:00 15,5 5,7 13 7 32 17 N 0,0
11.09.2019 10:00:00 11,8 4,8 15 8 27 14 N 0,0
11.09.2019 09:00:00 10,1 4,7 13 7 26 14 NNW 0,0
11.09.2019 08:00:00 8,9 3,9 10 5 20 11 NW -
11.09.2019 07:00:00 8,8 3,4 12 6 20 11 NW 0,0
11.09.2019 06:00:00 8,6 3,3 8 5 15 8 WNW 0,0
11.09.2019 05:00:00 9,4 3,4 6 4 16 9 WNW 0,0
11.09.2019 04:00:00 9,0 3,0 7 4 16 8 WNW 0,0
11.09.2019 03:00:00 9,5 2,8 8 5 22 12 W 0,0
11.09.2019 02:00:00 10,5 2,8 10 6 27 15 NNW -
11.09.2019 01:00:00 11,6 2,9 13 7 38 20 NNW 0,0
11.09.2019 00:00:00 12,6 3,0 18 10 35 19 NNW 0,0
10.09.2019 23:00:00 13,6 2,5 13 7 38 20 N 0,0
10.09.2019 22:00:00 15,3 1,8 15 8 35 19 N 0,0
10.09.2019 21:00:00 15,7 1,5 13 7 34 18 N 0,0
10.09.2019 20:00:00 17,3 1,7 18 10 40 21 N -
10.09.2019 19:00:00 17,9 1,9 19 10 41 22 N 0,0
10.09.2019 18:00:00 19,2 2,6 21 11 43 23 NNW 0,0
10.09.2019 17:00:00 20,7 3,0 21 11 44 24 N 0,0
10.09.2019 16:00:00 19,0 2,0 21 11 38 21 NNW 0,0
10.09.2019 15:00:00 18,2 2,1 15 8 44 24 NNW 0,0
10.09.2019 14:00:00 18,3 2,6 13 7 37 20 N -
10.09.2019 13:00:00 16,1 2,2 18 10 39 21 N 0,0
10.09.2019 12:00:00 15,5 2,3 16 9 36 20 N 0,0
10.09.2019 11:00:00 - - - - - - - -
10.09.2019 10:00:00 - - - - - - - -
10.09.2019 09:00:00 - - - - - - - -
10.09.2019 08:00:00 - - - - - - - -
10.09.2019 07:00:00 - - - - - - - -
10.09.2019 06:00:00 - - - - - - - -
10.09.2019 05:00:00 - - - - - - - -

tt = temperature
td = dewpoint
ff = wind speed
fx = gusts
dd = wind direction
rr = precipitation

Next stations